createdAt,value
2022-08-07T00:00:40.138Z,99793.88
2022-08-07T00:02:44.547Z,99795.06
2022-08-07T00:04:47.380Z,99794.69
2022-08-07T00:06:52.340Z,99794.28
2022-08-07T00:08:55.159Z,99795.88
2022-08-07T00:10:58.476Z,99793.06
2022-08-07T00:13:23.480Z,99787.06
2022-08-07T00:15:26.244Z,99787.84
2022-08-07T00:17:40.978Z,99791.03
2022-08-07T00:20:02.517Z,99798.63
2022-08-07T00:22:06.932Z,99788.63
2022-08-07T00:24:10.491Z,99796.22
2022-08-07T00:26:48.608Z,99798.59
2022-08-07T00:28:36.040Z,99789.41
2022-08-07T00:30:48.631Z,99798.59
2022-08-07T00:32:51.931Z,99792.63
2022-08-07T00:34:54.443Z,99795.81
2022-08-07T00:36:58.097Z,99796.19
2022-08-07T00:39:01.923Z,99799.41
2022-08-07T00:41:05.810Z,99800.59
2022-08-07T00:44:00.388Z,99799.78
2022-08-07T00:45:36.682Z,99797.38
2022-08-07T00:48:08.783Z,99794.91
2022-08-07T00:50:20.038Z,99796.13
2022-08-07T00:52:25.541Z,99794.13
2022-08-07T00:54:28.413Z,99794.50
2022-08-07T00:56:33.861Z,99792.13
2022-08-07T00:58:36.594Z,99803.66
2022-08-07T01:00:53.881Z,99801.66
2022-08-07T01:02:56.973Z,99804.03
2022-08-07T01:05:00.878Z,99803.63
2022-08-07T01:07:06.210Z,99800.81
2022-08-07T01:09:10.966Z,99802.41
2022-08-07T01:12:10.211Z,99807.16
2022-08-07T01:13:56.424Z,99808.38
2022-08-07T01:16:05.362Z,99802.78
2022-08-07T01:18:09.641Z,99807.16
2022-08-07T01:20:16.984Z,99806.78
2022-08-07T01:22:22.784Z,99807.56
2022-08-07T01:24:32.660Z,99815.16
2022-08-07T01:26:36.127Z,99803.56
2022-08-07T01:28:46.031Z,99814.75
2022-08-07T01:30:51.368Z,99806.34
2022-08-07T01:32:54.988Z,99803.56
2022-08-07T01:34:58.113Z,99809.94
2022-08-07T01:37:01.885Z,99809.56
2022-08-07T01:39:09.462Z,99805.56
2022-08-07T01:41:13.662Z,99809.56
2022-08-07T01:43:34.656Z,99813.59
2022-08-07T01:45:42.321Z,99812.00
2022-08-07T01:48:20.503Z,99807.59
2022-08-07T01:50:12.180Z,99806.84
2022-08-07T01:52:15.380Z,99808.84
2022-08-07T01:54:32.664Z,99805.66
2022-08-07T01:56:52.194Z,99815.69
2022-08-07T01:59:01.170Z,99810.47
2022-08-07T02:01:59.014Z,99808.91
2022-08-07T02:03:48.868Z,99806.09
2022-08-07T02:05:59.905Z,99804.16
2022-08-07T02:08:09.539Z,99805.00
2022-08-07T02:10:18.948Z,99804.97
2022-08-07T02:12:29.237Z,99806.59
2022-08-07T02:14:40.830Z,99810.22
2022-08-07T02:16:45.631Z,99802.66
2022-08-07T02:18:51.173Z,99806.22
2022-08-07T02:20:57.491Z,99805.84
2022-08-07T02:23:05.406Z,99800.25
2022-08-07T02:25:17.118Z,99795.06
2022-08-07T02:27:23.092Z,99797.88
2022-08-07T02:29:26.331Z,99803.91
2022-08-07T02:31:32.718Z,99796.69
2022-08-07T02:33:57.115Z,99800.72
2022-08-07T02:36:26.960Z,99804.31
2022-08-07T02:38:31.523Z,99808.31
2022-08-07T02:40:38.537Z,99810.34
2022-08-07T02:42:43.007Z,99803.97
2022-08-07T02:44:48.890Z,99791.56
2022-08-07T02:46:54.623Z,99804.78
2022-08-07T02:48:57.758Z,99806.78
2022-08-07T02:51:06.937Z,99811.56
2022-08-07T02:53:23.285Z,99794.38
2022-08-07T02:56:02.407Z,99790.34
2022-08-07T02:58:03.137Z,99799.53
2022-08-07T03:00:11.241Z,99800.34
2022-08-07T03:02:15.234Z,99796.34
2022-08-07T03:04:19.303Z,99797.50
2022-08-07T03:06:25.877Z,99798.31
2022-08-07T03:08:35.823Z,99794.72
2022-08-07T03:10:41.124Z,99795.91
2022-08-07T03:12:50.676Z,99792.31
2022-08-07T03:14:56.461Z,99796.72
2022-08-07T03:16:59.651Z,99799.09
2022-08-07T03:19:08.386Z,99803.91
2022-08-07T03:21:12.099Z,99803.91
2022-08-07T03:23:22.067Z,99801.13
2022-08-07T03:25:41.759Z,99803.91
2022-08-07T03:28:37.012Z,99800.28
2022-08-07T03:30:30.061Z,99795.88
2022-08-07T03:32:48.891Z,99802.69
2022-08-07T03:35:17.043Z,99800.66
2022-08-07T03:37:27.732Z,99793.81
2022-08-07T03:39:46.128Z,99801.00
2022-08-07T03:41:56.062Z,99797.78
2022-08-07T03:44:04.066Z,99793.34
2022-08-07T03:46:10.383Z,99793.72
2022-08-07T03:48:21.079Z,99804.91
2022-08-07T03:50:25.409Z,99796.09
2022-08-07T03:52:38.466Z,99800.47
2022-08-07T03:54:54.498Z,99800.44
2022-08-07T03:57:07.009Z,99803.28
2022-08-07T03:59:13.706Z,99788.41
2022-08-07T04:01:17.552Z,99798.81
2022-08-07T04:03:21.354Z,99800.81
2022-08-07T04:05:39.816Z,99806.41
2022-08-07T04:07:48.790Z,99811.59
2022-08-07T04:09:52.365Z,99801.13
2022-08-07T04:12:25.501Z,99802.69
2022-08-07T04:14:37.102Z,99805.06
2022-08-07T04:16:43.051Z,99785.41
2022-08-07T04:19:04.102Z,99790.56
2022-08-07T04:21:16.425Z,99791.34
2022-08-07T04:23:20.524Z,99786.06
2022-08-07T04:25:24.116Z,99788.44
2022-08-07T04:27:35.530Z,99789.19
2022-08-07T04:29:48.739Z,99785.53
2022-08-07T04:32:03.302Z,99785.09
2022-08-07T04:34:16.695Z,99775.84
2022-08-07T04:36:26.011Z,99783.78
2022-08-07T04:38:29.065Z,99782.53
2022-08-07T04:40:32.294Z,99785.31
2022-08-07T04:42:35.093Z,99775.56
2022-08-07T04:45:02.546Z,99780.31
2022-08-07T04:47:08.340Z,99784.69
2022-08-07T04:49:27.409Z,99783.81
2022-08-07T04:51:46.249Z,99778.94
2022-08-07T04:54:01.435Z,99787.28
2022-08-07T04:58:09.901Z,99788.84
2022-08-07T05:01:39.157Z,99788.28
2022-08-07T05:04:07.809Z,99780.63
2022-08-07T05:07:20.303Z,99788.97
2022-08-07T05:10:04.549Z,99781.28
2022-08-07T05:12:10.978Z,99790.84
2022-08-07T05:14:54.986Z,99785.09
2022-08-07T05:17:05.958Z,99786.63
2022-08-07T05:19:19.709Z,99786.16
2022-08-07T05:21:59.544Z,99790.09
2022-08-07T05:24:03.601Z,99783.22
2022-08-07T05:26:18.870Z,99782.66
2022-08-07T05:28:28.125Z,99790.59
2022-08-07T05:30:32.961Z,99785.63
2022-08-07T05:32:38.894Z,99781.63
2022-08-07T05:34:43.100Z,99792.72
2022-08-07T05:36:52.663Z,99791.88
2022-08-07T05:39:01.170Z,99792.59
2022-08-07T05:41:21.940Z,99792.84
2022-08-07T05:43:49.718Z,99790.31
2022-08-07T05:45:49.007Z,99792.63
2022-08-07T05:48:01.539Z,99790.97
2022-08-07T05:50:06.042Z,99790.94
2022-08-07T05:52:11.523Z,99792.38
2022-08-07T05:54:30.745Z,99789.09
2022-08-07T05:56:41.814Z,99791.97
2022-08-07T05:58:49.165Z,99795.06
2022-08-07T06:00:57.523Z,99788.13
2022-08-07T06:03:03.902Z,99786.06
2022-08-07T06:05:10.915Z,99772.81
2022-08-07T06:07:22.905Z,99784.75
2022-08-07T06:10:04.230Z,99784.72
2022-08-07T06:11:49.513Z,99776.16
2022-08-07T06:14:12.292Z,99782.44
2022-08-07T06:16:17.041Z,99776.75
2022-08-07T06:18:21.642Z,99773.72
2022-08-07T06:20:49.372Z,99778.44
2022-08-07T06:23:01.736Z,99776.78
2022-08-07T06:25:11.313Z,99771.78
2022-08-07T06:27:44.304Z,99770.91
2022-08-07T06:29:47.199Z,99777.34
2022-08-07T06:31:52.421Z,99770.03
2022-08-07T06:33:55.915Z,99772.34
2022-08-07T06:36:06.704Z,99769.38
2022-08-07T06:38:20.475Z,99769.22
2022-08-07T06:40:23.421Z,99767.91
2022-08-07T06:42:35.318Z,99775.41
2022-08-07T06:44:40.959Z,99772.56
2022-08-07T06:46:43.652Z,99768.06
2022-08-07T06:48:56.614Z,99759.47
2022-08-07T06:51:08.237Z,99774.28
2022-08-07T06:53:49.333Z,99773.75
2022-08-07T06:56:00.820Z,99774.88
2022-08-07T06:58:04.339Z,99778.34
2022-08-07T07:00:12.928Z,99779.06
2022-08-07T07:02:49.280Z,99775.34
2022-08-07T07:04:54.711Z,99775.63
2022-08-07T07:07:01.053Z,99776.31
2022-08-07T07:09:38.330Z,99774.56
2022-08-07T07:12:08.389Z,99780.13
2022-08-07T07:14:14.605Z,99772.44
2022-08-07T07:16:20.708Z,99771.75
2022-08-07T07:18:46.874Z,99780.50
2022-08-07T07:20:56.002Z,99779.97
2022-08-07T07:24:08.487Z,99780.16
2022-08-07T07:26:34.515Z,99770.56
2022-08-07T07:28:29.652Z,99773.22
2022-08-07T07:30:40.737Z,99770.72
2022-08-07T07:32:45.591Z,99769.28
2022-08-07T07:34:56.102Z,99770.41
2022-08-07T07:37:05.451Z,99774.34
2022-08-07T07:39:26.604Z,99772.56
2022-08-07T07:42:12.985Z,99769.53
2022-08-07T07:44:21.661Z,99766.69
2022-08-07T07:46:37.826Z,99770.91
2022-08-07T07:49:00.127Z,99765.94
2022-08-07T07:51:13.331Z,99769.91
2022-08-07T07:53:23.095Z,99775.22
2022-08-07T07:55:37.384Z,99767.75
2022-08-07T07:57:53.721Z,99767.91
2022-08-07T07:59:58.235Z,99771.88
2022-08-07T08:02:10.221Z,99765.63
2022-08-07T08:04:14.938Z,99764.66
2022-08-07T08:06:19.608Z,99769.19
2022-08-07T08:08:34.693Z,99769.31
2022-08-07T08:10:40.063Z,99763.31
2022-08-07T08:12:52.696Z,99766.50
2022-08-07T08:15:06.851Z,99766.84
2022-08-07T08:17:55.894Z,99762.53
2022-08-07T08:20:17.915Z,99762.41
2022-08-07T08:22:20.451Z,99761.16
2022-08-07T08:25:11.468Z,99760.59
2022-08-07T08:27:25.162Z,99758.91
2022-08-07T08:29:55.724Z,99762.41
2022-08-07T08:32:18.386Z,99753.00
2022-08-07T08:34:26.964Z,99753.34
2022-08-07T08:36:34.634Z,99755.94
2022-08-07T08:38:44.534Z,99748.13
2022-08-07T08:41:17.915Z,99751.09
2022-08-07T08:43:42.762Z,99750.41
2022-08-07T08:45:59.412Z,99743.56
2022-08-07T08:48:28.366Z,99745.16
2022-08-07T08:50:45.276Z,99743.44
2022-08-07T08:52:53.758Z,99745.72
2022-08-07T08:55:07.676Z,99746.94
2022-08-07T08:57:21.934Z,99748.25
2022-08-07T08:59:51.241Z,99741.00
2022-08-07T09:02:00.420Z,99740.88
2022-08-07T09:04:26.183Z,99739.41
2022-08-07T09:07:06.421Z,99745.16
2022-08-07T09:09:47.468Z,99740.94
2022-08-07T09:12:31.312Z,99737.38
2022-08-07T09:14:50.562Z,99738.56
2022-08-07T09:17:59.689Z,99734.31
2022-08-07T09:20:39.202Z,99732.59
2022-08-07T09:24:32.558Z,99731.03
2022-08-07T09:25:41.232Z,99731.56
2022-08-07T09:28:01.290Z,99727.34
2022-08-07T09:30:09.151Z,99736.06
2022-08-07T09:32:17.249Z,99728.53
2022-08-07T09:34:27.783Z,99728.69
2022-08-07T09:36:37.250Z,99719.09
2022-08-07T09:38:54.822Z,99727.91
2022-08-07T09:41:22.919Z,99720.72
2022-08-07T09:44:06.073Z,99715.03
2022-08-07T09:47:52.544Z,99725.16
2022-08-07T09:50:01.017Z,99716.31
2022-08-07T09:52:15.332Z,99716.38
2022-08-07T09:54:49.803Z,99714.50
2022-08-07T09:57:28.002Z,99717.88
2022-08-07T10:00:00.917Z,99719.75
2022-08-07T10:02:13.234Z,99717.22
2022-08-07T10:05:12.578Z,99706.06
2022-08-07T10:07:39.694Z,99704.41
2022-08-07T10:10:24.465Z,99697.41
2022-08-07T10:12:52.636Z,99709.59
2022-08-07T10:15:19.165Z,99696.34
2022-08-07T10:18:02.660Z,99694.56
2022-08-07T10:19:58.605Z,99693.16
2022-08-07T10:22:36.877Z,99688.75
2022-08-07T10:24:55.583Z,99696.16
2022-08-07T10:27:30.278Z,99688.09
2022-08-07T10:30:12.370Z,99695.25
2022-08-07T10:32:41.798Z,99691.13
2022-08-07T10:35:02.313Z,99691.53
2022-08-07T10:38:00.281Z,99689.75
2022-08-07T10:40:16.510Z,99689.59
2022-08-07T10:42:36.293Z,99680.75
2022-08-07T10:45:15.238Z,99676.56
2022-08-07T10:48:01.246Z,99677.31
2022-08-07T10:50:26.080Z,99668.78
2022-08-07T10:52:34.130Z,99675.63
2022-08-07T10:55:21.006Z,99666.78
2022-08-07T10:57:39.402Z,99668.53
2022-08-07T10:59:52.102Z,99667.44
2022-08-07T11:02:12.028Z,99669.00
2022-08-07T11:04:34.927Z,99668.22
2022-08-07T11:07:01.786Z,99665.69
2022-08-07T11:10:10.061Z,99669.16
2022-08-07T11:12:32.189Z,99666.09
2022-08-07T11:15:00.135Z,99666.75
2022-08-07T11:17:45.600Z,99656.00
2022-08-07T11:19:52.065Z,99651.75
2022-08-07T11:21:58.896Z,99656.50
2022-08-07T11:24:11.812Z,99657.25
2022-08-07T11:26:48.269Z,99652.03
2022-08-07T11:29:12.941Z,99644.59
2022-08-07T11:31:41.369Z,99653.31
2022-08-07T11:34:29.042Z,99656.66
2022-08-07T11:36:34.649Z,99658.41
2022-08-07T11:39:06.932Z,99650.03
2022-08-07T11:41:59.925Z,99646.38
2022-08-07T11:44:14.873Z,99653.03
2022-08-07T11:46:48.805Z,99647.81
2022-08-07T11:49:51.518Z,99638.63
2022-08-07T11:51:44.915Z,99640.69
2022-08-07T11:54:01.371Z,99641.13
2022-08-07T11:56:27.665Z,99641.44
2022-08-07T11:58:33.216Z,99630.47
2022-08-07T12:01:02.266Z,99638.97
2022-08-07T12:03:44.304Z,99641.81
2022-08-07T12:06:38.955Z,99633.88
2022-08-07T12:08:56.194Z,99632.00
2022-08-07T12:11:20.206Z,99639.81
2022-08-07T12:13:35.547Z,99633.00
2022-08-07T12:16:07.056Z,99624.88
2022-08-07T12:18:29.729Z,99625.47
2022-08-07T12:20:46.386Z,99623.81
2022-08-07T12:23:08.969Z,99620.88
2022-08-07T12:26:05.585Z,99629.66
2022-08-07T12:28:09.448Z,99618.91
2022-08-07T12:30:13.973Z,99608.59
2022-08-07T12:32:25.297Z,99611.94
2022-08-07T12:34:31.947Z,99600.88
2022-08-07T12:36:36.848Z,99601.56
2022-08-07T12:38:42.694Z,99601.81
2022-08-07T12:40:50.011Z,99606.69
2022-08-07T12:42:57.234Z,99609.78
2022-08-07T12:45:07.508Z,99608.25
2022-08-07T12:47:37.810Z,99611.31
2022-08-07T12:50:38.218Z,99603.97
2022-08-07T12:52:52.333Z,99606.75
2022-08-07T12:55:09.325Z,99604.16
2022-08-07T12:57:19.551Z,99599.03
2022-08-07T12:59:54.473Z,99600.88
2022-08-07T13:02:17.173Z,99598.22
2022-08-07T13:04:34.901Z,99601.22
2022-08-07T13:07:09.281Z,99601.56
2022-08-07T13:10:29.361Z,99599.47
2022-08-07T13:12:33.098Z,99599.22
2022-08-07T13:14:57.582Z,99597.94
2022-08-07T13:17:10.040Z,99594.94
2022-08-07T13:19:46.086Z,99594.47
2022-08-07T13:22:27.686Z,99585.59
2022-08-07T13:25:08.912Z,99594.97
2022-08-07T13:28:11.704Z,99597.84
2022-08-07T13:30:07.408Z,99589.44
2022-08-07T13:34:14.796Z,99589.66
2022-08-07T13:36:00.528Z,99584.25
2022-08-07T13:38:31.402Z,99594.28
2022-08-07T13:41:02.098Z,99589.25
2022-08-07T13:43:12.108Z,99587.44
2022-08-07T13:46:07.891Z,99586.38
2022-08-07T13:48:05.810Z,99579.53
2022-08-07T13:50:34.181Z,99573.47
2022-08-07T13:52:39.509Z,99584.69
2022-08-07T13:54:49.265Z,99580.97
2022-08-07T13:56:59.896Z,99572.38
2022-08-07T13:59:05.539Z,99570.84
2022-08-07T14:01:20.393Z,99573.47
2022-08-07T14:03:30.101Z,99572.94
2022-08-07T14:06:01.174Z,99568.69
2022-08-07T14:08:07.203Z,99566.00
2022-08-07T14:10:20.486Z,99562.06
2022-08-07T14:12:49.430Z,99559.38
2022-08-07T14:15:05.698Z,99563.75
2022-08-07T14:17:32.296Z,99561.59
2022-08-07T14:20:43.048Z,99566.22
2022-08-07T14:22:41.326Z,99568.69
2022-08-07T14:24:42.552Z,99558.53
2022-08-07T14:28:09.189Z,99560.66
2022-08-07T14:30:06.699Z,99568.22
2022-08-07T14:31:57.901Z,99559.72
2022-08-07T14:34:03.190Z,99563.13
2022-08-07T14:36:11.685Z,99559.28
2022-08-07T14:38:30.784Z,99556.94
2022-08-07T14:40:35.958Z,99552.63
2022-08-07T14:43:01.295Z,99555.41
2022-08-07T14:45:21.706Z,99558.38
2022-08-07T14:47:27.044Z,99559.97
2022-08-07T14:49:57.307Z,99562.56
2022-08-07T14:52:04.770Z,99553.97
2022-08-07T14:56:43.703Z,99563.38
2022-08-07T14:58:55.080Z,99561.00
2022-08-07T15:01:00.374Z,99562.63
2022-08-07T15:03:52.628Z,99566.88
2022-08-07T15:08:14.233Z,99560.38
2022-08-07T15:10:26.509Z,99563.44
2022-08-07T15:12:36.867Z,99563.66
2022-08-07T15:14:56.289Z,99560.88
2022-08-07T15:17:13.882Z,99563.03
2022-08-07T15:25:14.054Z,99564.19
2022-08-07T15:26:46.949Z,99561.19
2022-08-07T15:30:03.609Z,99553.88
2022-08-07T15:32:02.074Z,99547.75
2022-08-07T15:33:47.827Z,99554.31
2022-08-07T15:38:30.991Z,99544.47
2022-08-07T15:40:37.033Z,99549.63
2022-08-07T15:42:47.609Z,99553.91
2022-08-07T15:44:52.470Z,99556.91
2022-08-07T15:50:04.469Z,99555.31
2022-08-07T15:54:02.343Z,99544.00
2022-08-07T15:56:13.362Z,99556.63
2022-08-07T15:58:21.022Z,99544.22
2022-08-07T16:00:33.598Z,99545.63
2022-08-07T16:02:45.790Z,99545.75
2022-08-07T16:04:58.008Z,99545.22
2022-08-07T16:07:04.586Z,99550.59
2022-08-07T16:09:41.960Z,99547.44
2022-08-07T16:12:12.601Z,99544.63
2022-08-07T16:14:41.062Z,99552.75
2022-08-07T16:17:02.854Z,99549.91
2022-08-07T16:19:42.580Z,99553.38
2022-08-07T16:22:08.900Z,99557.66
2022-08-07T16:24:55.643Z,99561.44
2022-08-07T16:27:21.381Z,99568.03
2022-08-07T16:30:10.722Z,99562.47
2022-08-07T16:32:32.888Z,99560.38
2022-08-07T16:34:48.127Z,99563.81
2022-08-07T16:38:04.655Z,99560.25
2022-08-07T16:40:28.081Z,99568.66
2022-08-07T16:43:03.328Z,99576.81
2022-08-07T16:46:34.638Z,99573.63
2022-08-07T16:49:04.307Z,99570.97
2022-08-07T16:51:53.990Z,99571.84
2022-08-07T16:54:11.476Z,99575.72
2022-08-07T16:56:56.246Z,99579.94
2022-08-07T16:59:46.971Z,99584.19
2022-08-07T17:01:58.723Z,99580.00
2022-08-07T17:04:10.280Z,99583.88
2022-08-07T17:06:44.763Z,99584.81
2022-08-07T17:09:14.097Z,99576.88
2022-08-07T17:12:04.071Z,99581.88
2022-08-07T17:14:19.027Z,99572.69
2022-08-07T17:16:29.440Z,99576.00
2022-08-07T17:18:52.488Z,99575.56
2022-08-07T17:20:56.496Z,99577.47
2022-08-07T17:23:16.976Z,99572.03
2022-08-07T17:25:47.811Z,99575.91
2022-08-07T17:27:55.940Z,99572.06
2022-08-07T17:30:16.238Z,99577.16
2022-08-07T17:32:52.394Z,99569.66
2022-08-07T17:35:49.874Z,99578.25
2022-08-07T17:38:11.379Z,99576.88
2022-08-07T17:40:19.133Z,99573.56
2022-08-07T17:42:59.076Z,99581.72
2022-08-07T17:45:14.891Z,99575.81
2022-08-07T17:47:42.765Z,99573.56
2022-08-07T17:49:58.537Z,99578.16
2022-08-07T17:52:13.999Z,99577.47
2022-08-07T17:54:39.669Z,99572.81
2022-08-07T17:57:18.684Z,99573.97
2022-08-07T17:59:24.801Z,99575.34
2022-08-07T18:02:16.832Z,99566.03
2022-08-07T18:04:44.885Z,99568.72
2022-08-07T18:06:57.934Z,99567.78
2022-08-07T18:10:04.968Z,99568.44
2022-08-07T18:12:19.375Z,99562.16
2022-08-07T18:14:31.616Z,99561.13
2022-08-07T18:16:57.406Z,99569.69
2022-08-07T18:21:04.142Z,99570.56
2022-08-07T18:22:05.375Z,99568.88
2022-08-07T18:24:34.311Z,99567.13
2022-08-07T18:26:40.898Z,99574.16
2022-08-07T18:30:07.390Z,99575.50
2022-08-07T18:31:50.294Z,99568.44
2022-08-07T18:34:05.821Z,99574.94
2022-08-07T18:38:53.736Z,99564.53
2022-08-07T18:40:08.133Z,99577.31
2022-08-07T18:42:43.758Z,99575.03
2022-08-07T18:45:44.736Z,99578.69
2022-08-07T18:47:44.976Z,99585.19
2022-08-07T18:50:39.647Z,99578.41
2022-08-07T18:53:22.065Z,99586.63
2022-08-07T18:55:55.894Z,99585.53
2022-08-07T18:58:15.115Z,99578.81
2022-08-07T19:00:34.214Z,99573.25
2022-08-07T19:02:59.685Z,99580.47
2022-08-07T19:05:09.752Z,99584.16
2022-08-07T19:07:34.212Z,99584.63
2022-08-07T19:09:57.677Z,99591.47
2022-08-07T19:12:20.320Z,99590.31
2022-08-07T19:14:41.106Z,99589.59
2022-08-07T19:17:06.089Z,99592.56
2022-08-07T19:19:37.933Z,99586.66
2022-08-07T19:22:05.179Z,99597.22
2022-08-07T19:24:30.887Z,99591.69
2022-08-07T19:28:28.677Z,99595.38
2022-08-07T19:31:03.675Z,99594.28
2022-08-07T19:32:10.324Z,99601.63
2022-08-07T19:34:03.167Z,99607.00
2022-08-07T19:36:08.661Z,99601.50
2022-08-07T19:38:17.152Z,99603.50
2022-08-07T19:40:30.794Z,99599.91
2022-08-07T19:42:42.757Z,99595.09
2022-08-07T19:44:46.724Z,99599.59
2022-08-07T19:46:58.042Z,99590.41
2022-08-07T19:49:06.279Z,99598.16
2022-08-07T19:51:19.896Z,99596.53
2022-08-07T19:54:33.486Z,99600.28
2022-08-07T19:55:57.563Z,99608.00
2022-08-07T19:58:13.536Z,99609.22
2022-08-07T20:00:29.166Z,99606.53
2022-08-07T20:02:38.976Z,99623.91
2022-08-07T20:04:45.202Z,99616.31
2022-08-07T20:06:55.244Z,99616.34
2022-08-07T20:09:01.952Z,99615.19
2022-08-07T20:11:10.876Z,99617.25
2022-08-07T20:13:23.634Z,99617.75
2022-08-07T20:15:32.988Z,99618.63
2022-08-07T20:17:40.938Z,99615.06
2022-08-07T20:19:58.553Z,99614.75
2022-08-07T20:22:02.597Z,99615.56
2022-08-07T20:24:14.859Z,99612.47
2022-08-07T20:26:32.049Z,99612.09
2022-08-07T20:28:44.655Z,99612.59
2022-08-07T20:30:49.814Z,99602.22
2022-08-07T20:32:55.950Z,99606.75
2022-08-07T20:35:07.861Z,99609.06
2022-08-07T20:37:12.494Z,99621.53
2022-08-07T20:39:31.174Z,99617.56
2022-08-07T20:41:53.021Z,99616.38
2022-08-07T20:43:58.193Z,99623.25
2022-08-07T20:46:25.795Z,99627.63
2022-08-07T20:48:30.018Z,99626.44
2022-08-07T20:50:34.517Z,99625.25
2022-08-07T20:52:51.931Z,99623.63
2022-08-07T20:54:56.173Z,99621.22
2022-08-07T20:57:08.352Z,99626.50
2022-08-07T21:00:05.226Z,99631.31
2022-08-07T21:01:54.762Z,99632.16
2022-08-07T21:04:21.685Z,99629.78
2022-08-07T21:06:31.363Z,99631.03
2022-08-07T21:08:41.116Z,99636.31
2022-08-07T21:10:45.117Z,99633.13
2022-08-07T21:12:51.466Z,99632.75
2022-08-07T21:14:58.689Z,99629.97
2022-08-07T21:18:00.820Z,99624.78
2022-08-07T21:19:32.362Z,99634.47
2022-08-07T21:21:57.538Z,99630.13
2022-08-07T21:24:07.560Z,99629.75
2022-08-07T21:26:22.017Z,99633.38
2022-08-07T21:28:48.870Z,99626.22
2022-08-07T21:30:56.545Z,99628.28
2022-08-07T21:33:22.413Z,99635.53
2022-08-07T21:36:04.216Z,99628.34
2022-08-07T21:38:55.331Z,99631.19
2022-08-07T21:41:10.099Z,99629.25
2022-08-07T21:43:47.306Z,99623.28
2022-08-07T21:46:32.440Z,99633.28
2022-08-07T21:49:01.986Z,99632.97
2022-08-07T21:51:25.022Z,99628.59
2022-08-07T21:53:46.344Z,99633.03
2022-08-07T21:56:07.088Z,99631.47
2022-08-07T21:58:45.772Z,99631.09
2022-08-07T22:00:54.342Z,99629.91
2022-08-07T22:03:30.990Z,99631.94
2022-08-07T22:05:55.812Z,99622.75
2022-08-07T22:08:01.415Z,99617.16
2022-08-07T22:10:07.306Z,99625.59
2022-08-07T22:12:27.240Z,99626.78
2022-08-07T22:14:59.384Z,99628.03
2022-08-07T22:17:05.946Z,99627.66
2022-08-07T22:19:19.968Z,99628.47
2022-08-07T22:22:04.911Z,99628.47
2022-08-07T22:24:01.753Z,99630.53
2022-08-07T22:26:34.326Z,99627.72
2022-08-07T22:28:59.447Z,99633.34
2022-08-07T22:31:45.104Z,99631.75
2022-08-07T22:33:57.472Z,99626.16
2022-08-07T22:36:11.822Z,99631.81
2022-08-07T22:38:31.943Z,99635.84
2022-08-07T22:41:10.833Z,99632.28
2022-08-07T22:43:18.238Z,99628.31
2022-08-07T22:46:40.585Z,99623.13
2022-08-07T22:48:54.828Z,99632.72
2022-08-07T22:51:06.622Z,99638.78
2022-08-07T22:53:17.853Z,99642.84
2022-08-07T22:55:52.357Z,99636.84
2022-08-07T22:58:20.037Z,99639.69
2022-08-07T23:00:49.865Z,99637.28
2022-08-07T23:03:28.357Z,99640.13
2022-08-07T23:06:07.613Z,99637.72
2022-08-07T23:08:24.382Z,99649.78
2022-08-07T23:10:42.160Z,99647.03
2022-08-07T23:13:16.797Z,99640.59
2022-08-07T23:16:05.401Z,99639.44
2022-08-07T23:18:03.686Z,99638.25
2022-08-07T23:20:40.314Z,99648.31
2022-08-07T23:24:06.888Z,99639.53
2022-08-07T23:25:48.922Z,99638.00
2022-08-07T23:28:22.341Z,99642.78
2022-08-07T23:31:11.610Z,99640.41
2022-08-07T23:34:19.850Z,99634.84
2022-08-07T23:36:34.398Z,99632.47
2022-08-07T23:38:42.916Z,99637.28
2022-08-07T23:40:55.637Z,99632.91
2022-08-07T23:43:17.497Z,99637.34
2022-08-07T23:46:03.302Z,99632.53
2022-08-07T23:48:28.769Z,99638.97
2022-08-07T23:53:05.524Z,99634.59
2022-08-07T23:53:51.075Z,99633.38
2022-08-07T23:56:14.765Z,99640.59
2022-08-07T23:59:10.652Z,99618.19
